sensor_id;sensor_type;location;lat;lon;timestamp;P1;durP1;ratioP1;P2;durP2;ratioP2
75504;SDS011;64085;54.974;73.410;2024-02-26T00:00:36;13.35;;;4.88;;
75504;SDS011;64085;54.974;73.410;2024-02-26T00:03:02;10.77;;;5.30;;
75504;SDS011;64085;54.974;73.410;2024-02-26T00:05:28;12.93;;;5.15;;
75504;SDS011;64085;54.974;73.410;2024-02-26T00:07:53;11.40;;;6.55;;
75504;SDS011;64085;54.974;73.410;2024-02-26T00:10:19;17.42;;;8.52;;
75504;SDS011;64085;54.974;73.410;2024-02-26T00:12:44;21.08;;;8.23;;
75504;SDS011;64085;54.974;73.410;2024-02-26T00:15:10;25.45;;;11.48;;
75504;SDS011;64085;54.974;73.410;2024-02-26T00:17:35;19.48;;;8.98;;
75504;SDS011;64085;54.974;73.410;2024-02-26T00:20:01;16.67;;;8.43;;
75504;SDS011;64085;54.974;73.410;2024-02-26T00:22:29;11.32;;;5.63;;
75504;SDS011;64085;54.974;73.410;2024-02-26T00:24:55;12.20;;;5.25;;
75504;SDS011;64085;54.974;73.410;2024-02-26T00:27:20;12.50;;;7.13;;
75504;SDS011;64085;54.974;73.410;2024-02-26T00:29:46;14.02;;;6.88;;
75504;SDS011;64085;54.974;73.410;2024-02-26T00:32:11;15.90;;;8.40;;
75504;SDS011;64085;54.974;73.410;2024-02-26T00:34:36;14.38;;;7.18;;
75504;SDS011;64085;54.974;73.410;2024-02-26T00:37:02;16.10;;;8.68;;
75504;SDS011;64085;54.974;73.410;2024-02-26T00:39:27;24.13;;;11.05;;
75504;SDS011;64085;54.974;73.410;2024-02-26T00:41:53;16.27;;;7.05;;
75504;SDS011;64085;54.974;73.410;2024-02-26T00:44:18;3.90;;;2.85;;
75504;SDS011;64085;54.974;73.410;2024-02-26T00:46:44;15.18;;;8.57;;
75504;SDS011;64085;54.974;73.410;2024-02-26T00:49:09;13.25;;;8.13;;
75504;SDS011;64085;54.974;73.410;2024-02-26T00:51:35;14.43;;;8.43;;
75504;SDS011;64085;54.974;73.410;2024-02-26T00:54:00;20.63;;;9.43;;
75504;SDS011;64085;54.974;73.410;2024-02-26T00:56:26;18.63;;;8.60;;
75504;SDS011;64085;54.974;73.410;2024-02-26T00:58:51;22.77;;;11.18;;
75504;SDS011;64085;54.974;73.410;2024-02-26T01:01:17;19.88;;;9.13;;
75504;SDS011;64085;54.974;73.410;2024-02-26T01:03:42;25.73;;;12.77;;
75504;SDS011;64085;54.974;73.410;2024-02-26T01:06:08;25.67;;;11.07;;
75504;SDS011;64085;54.974;73.410;2024-02-26T01:08:33;35.95;;;16.20;;
75504;SDS011;64085;54.974;73.410;2024-02-26T01:11:00;14.20;;;10.07;;
75504;SDS011;64085;54.974;73.410;2024-02-26T01:13:26;28.92;;;13.05;;
75504;SDS011;64085;54.974;73.410;2024-02-26T01:15:51;15.40;;;9.40;;
75504;SDS011;64085;54.974;73.410;2024-02-26T01:18:17;22.25;;;10.95;;
75504;SDS011;64085;54.974;73.410;2024-02-26T01:20:42;25.15;;;12.07;;
75504;SDS011;64085;54.974;73.410;2024-02-26T01:23:08;19.10;;;9.60;;
75504;SDS011;64085;54.974;73.410;2024-02-26T01:25:33;24.80;;;11.65;;
75504;SDS011;64085;54.974;73.410;2024-02-26T01:27:58;32.63;;;14.68;;
75504;SDS011;64085;54.974;73.410;2024-02-26T01:30:24;21.15;;;11.00;;
75504;SDS011;64085;54.974;73.410;2024-02-26T01:32:49;30.73;;;13.55;;
75504;SDS011;64085;54.974;73.410;2024-02-26T01:35:15;20.00;;;9.05;;
75504;SDS011;64085;54.974;73.410;2024-02-26T01:37:40;18.70;;;8.57;;
75504;SDS011;64085;54.974;73.410;2024-02-26T01:40:07;22.15;;;9.73;;
75504;SDS011;64085;54.974;73.410;2024-02-26T01:42:34;24.15;;;11.38;;
75504;SDS011;64085;54.974;73.410;2024-02-26T01:45:00;13.02;;;6.90;;
75504;SDS011;64085;54.974;73.410;2024-02-26T01:47:26;18.08;;;10.13;;
75504;SDS011;64085;54.974;73.410;2024-02-26T01:49:52;18.95;;;10.63;;
75504;SDS011;64085;54.974;73.410;2024-02-26T01:52:17;17.75;;;8.02;;
75504;SDS011;64085;54.974;73.410;2024-02-26T01:54:44;8.38;;;5.72;;
75504;SDS011;64085;54.974;73.410;2024-02-26T01:57:10;7.18;;;3.13;;
75504;SDS011;64085;54.974;73.410;2024-02-26T01:59:36;17.40;;;8.57;;
75504;SDS011;64085;54.974;73.410;2024-02-26T02:02:03;23.70;;;12.20;;
75504;SDS011;64085;54.974;73.410;2024-02-26T02:04:29;14.45;;;8.20;;
75504;SDS011;64085;54.974;73.410;2024-02-26T02:06:55;20.20;;;9.25;;
75504;SDS011;64085;54.974;73.410;2024-02-26T02:09:20;23.35;;;9.40;;
75504;SDS011;64085;54.974;73.410;2024-02-26T02:11:48;21.70;;;11.07;;
75504;SDS011;64085;54.974;73.410;2024-02-26T02:14:14;20.23;;;8.88;;
75504;SDS011;64085;54.974;73.410;2024-02-26T02:16:39;16.10;;;8.23;;
75504;SDS011;64085;54.974;73.410;2024-02-26T02:19:05;13.90;;;9.20;;
75504;SDS011;64085;54.974;73.410;2024-02-26T02:21:30;16.50;;;7.75;;
75504;SDS011;64085;54.974;73.410;2024-02-26T02:23:56;32.38;;;12.43;;
75504;SDS011;64085;54.974;73.410;2024-02-26T02:26:21;24.75;;;10.00;;
75504;SDS011;64085;54.974;73.410;2024-02-26T02:28:47;20.17;;;8.73;;
75504;SDS011;64085;54.974;73.410;2024-02-26T02:31:14;9.30;;;6.40;;
75504;SDS011;64085;54.974;73.410;2024-02-26T02:33:40;16.70;;;8.75;;
75504;SDS011;64085;54.974;73.410;2024-02-26T02:36:05;23.10;;;11.30;;
75504;SDS011;64085;54.974;73.410;2024-02-26T02:38:35;25.83;;;12.45;;
75504;SDS011;64085;54.974;73.410;2024-02-26T02:41:00;20.17;;;10.15;;
75504;SDS011;64085;54.974;73.410;2024-02-26T02:43:26;15.73;;;8.35;;
75504;SDS011;64085;54.974;73.410;2024-02-26T02:45:51;18.65;;;9.05;;
75504;SDS011;64085;54.974;73.410;2024-02-26T02:48:17;19.67;;;10.18;;
75504;SDS011;64085;54.974;73.410;2024-02-26T02:50:42;18.98;;;8.93;;
75504;SDS011;64085;54.974;73.410;2024-02-26T02:53:08;17.42;;;9.48;;
75504;SDS011;64085;54.974;73.410;2024-02-26T02:55:33;12.45;;;7.75;;
75504;SDS011;64085;54.974;73.410;2024-02-26T02:57:59;6.20;;;4.28;;
75504;SDS011;64085;54.974;73.410;2024-02-26T03:00:24;13.25;;;7.40;;
75504;SDS011;64085;54.974;73.410;2024-02-26T03:02:50;25.50;;;10.68;;
75504;SDS011;64085;54.974;73.410;2024-02-26T03:05:15;5.90;;;3.30;;
75504;SDS011;64085;54.974;73.410;2024-02-26T03:07:41;7.28;;;3.83;;
75504;SDS011;64085;54.974;73.410;2024-02-26T03:10:06;13.02;;;6.43;;
75504;SDS011;64085;54.974;73.410;2024-02-26T03:12:33;11.00;;;5.40;;
75504;SDS011;64085;54.974;73.410;2024-02-26T03:14:58;36.55;;;16.42;;
75504;SDS011;64085;54.974;73.410;2024-02-26T03:17:26;28.80;;;11.38;;
75504;SDS011;64085;54.974;73.410;2024-02-26T03:19:52;21.05;;;9.63;;
75504;SDS011;64085;54.974;73.410;2024-02-26T03:22:19;16.13;;;8.25;;
75504;SDS011;64085;54.974;73.410;2024-02-26T03:24:45;11.23;;;6.50;;
75504;SDS011;64085;54.974;73.410;2024-02-26T03:27:10;10.75;;;6.40;;
75504;SDS011;64085;54.974;73.410;2024-02-26T03:29:37;20.35;;;9.57;;
75504;SDS011;64085;54.974;73.410;2024-02-26T03:32:02;21.77;;;11.25;;
75504;SDS011;64085;54.974;73.410;2024-02-26T03:34:28;38.22;;;18.30;;
75504;SDS011;64085;54.974;73.410;2024-02-26T03:36:53;39.15;;;17.02;;
75504;SDS011;64085;54.974;73.410;2024-02-26T03:39:19;32.97;;;15.63;;
75504;SDS011;64085;54.974;73.410;2024-02-26T03:41:44;32.83;;;14.07;;
75504;SDS011;64085;54.974;73.410;2024-02-26T03:44:10;14.45;;;4.70;;
75504;SDS011;64085;54.974;73.410;2024-02-26T03:46:35;31.08;;;13.02;;
75504;SDS011;64085;54.974;73.410;2024-02-26T03:49:01;25.63;;;13.02;;
75504;SDS011;64085;54.974;73.410;2024-02-26T03:51:26;44.00;;;18.27;;
75504;SDS011;64085;54.974;73.410;2024-02-26T03:56:21;20.40;;;10.20;;
75504;SDS011;64085;54.974;73.410;2024-02-26T03:58:48;32.20;;;16.23;;
75504;SDS011;64085;54.974;73.410;2024-02-26T04:01:13;37.35;;;16.67;;
75504;SDS011;64085;54.974;73.410;2024-02-26T04:03:39;31.40;;;15.70;;
75504;SDS011;64085;54.974;73.410;2024-02-26T04:06:04;38.90;;;18.17;;
75504;SDS011;64085;54.974;73.410;2024-02-26T04:08:30;35.97;;;16.20;;
75504;SDS011;64085;54.974;73.410;2024-02-26T04:10:56;31.70;;;15.15;;
75504;SDS011;64085;54.974;73.410;2024-02-26T04:13:21;29.23;;;15.63;;
75504;SDS011;64085;54.974;73.410;2024-02-26T04:15:47;31.95;;;13.85;;
75504;SDS011;64085;54.974;73.410;2024-02-26T04:18:12;27.08;;;12.65;;
75504;SDS011;64085;54.974;73.410;2024-02-26T04:20:38;55.58;;;21.00;;
75504;SDS011;64085;54.974;73.410;2024-02-26T04:23:03;46.42;;;21.80;;
75504;SDS011;64085;54.974;73.410;2024-02-26T04:25:29;46.40;;;25.88;;
75504;SDS011;64085;54.974;73.410;2024-02-26T04:27:54;39.30;;;19.58;;
75504;SDS011;64085;54.974;73.410;2024-02-26T04:30:20;32.78;;;17.65;;
75504;SDS011;64085;54.974;73.410;2024-02-26T04:32:45;32.17;;;17.63;;
75504;SDS011;64085;54.974;73.410;2024-02-26T04:35:10;29.45;;;17.10;;
75504;SDS011;64085;54.974;73.410;2024-02-26T04:37:36;29.15;;;15.90;;
75504;SDS011;64085;54.974;73.410;2024-02-26T04:40:02;32.40;;;18.98;;
75504;SDS011;64085;54.974;73.410;2024-02-26T04:42:27;42.90;;;21.52;;
75504;SDS011;64085;54.974;73.410;2024-02-26T04:44:54;40.63;;;20.58;;
75504;SDS011;64085;54.974;73.410;2024-02-26T04:47:19;34.17;;;17.40;;
75504;SDS011;64085;54.974;73.410;2024-02-26T04:49:47;29.02;;;16.20;;
75504;SDS011;64085;54.974;73.410;2024-02-26T04:52:12;30.52;;;16.60;;
75504;SDS011;64085;54.974;73.410;2024-02-26T04:54:38;25.33;;;15.07;;
75504;SDS011;64085;54.974;73.410;2024-02-26T04:57:03;24.25;;;12.15;;
75504;SDS011;64085;54.974;73.410;2024-02-26T04:59:29;21.15;;;11.75;;
75504;SDS011;64085;54.974;73.410;2024-02-26T05:01:55;18.67;;;10.90;;
75504;SDS011;64085;54.974;73.410;2024-02-26T05:04:20;23.90;;;12.07;;
75504;SDS011;64085;54.974;73.410;2024-02-26T05:06:46;17.58;;;9.52;;
75504;SDS011;64085;54.974;73.410;2024-02-26T05:09:11;22.38;;;11.43;;
75504;SDS011;64085;54.974;73.410;2024-02-26T05:11:37;21.92;;;11.65;;
75504;SDS011;64085;54.974;73.410;2024-02-26T05:14:02;26.92;;;13.25;;
75504;SDS011;64085;54.974;73.410;2024-02-26T05:16:28;16.23;;;9.63;;
75504;SDS011;64085;54.974;73.410;2024-02-26T05:18:55;26.58;;;11.68;;
75504;SDS011;64085;54.974;73.410;2024-02-26T05:21:20;18.40;;;9.15;;
75504;SDS011;64085;54.974;73.410;2024-02-26T05:23:46;21.77;;;10.68;;
75504;SDS011;64085;54.974;73.410;2024-02-26T05:26:11;21.30;;;10.27;;
75504;SDS011;64085;54.974;73.410;2024-02-26T05:28:37;18.60;;;9.70;;
75504;SDS011;64085;54.974;73.410;2024-02-26T05:31:04;17.88;;;11.70;;
75504;SDS011;64085;54.974;73.410;2024-02-26T05:33:30;17.60;;;10.10;;
75504;SDS011;64085;54.974;73.410;2024-02-26T05:35:55;23.23;;;12.23;;
75504;SDS011;64085;54.974;73.410;2024-02-26T05:38:21;18.88;;;10.73;;
75504;SDS011;64085;54.974;73.410;2024-02-26T05:40:46;14.02;;;8.35;;
75504;SDS011;64085;54.974;73.410;2024-02-26T05:43:12;19.63;;;10.82;;
75504;SDS011;64085;54.974;73.410;2024-02-26T05:45:40;20.98;;;10.13;;
75504;SDS011;64085;54.974;73.410;2024-02-26T05:48:06;16.33;;;9.70;;
75504;SDS011;64085;54.974;73.410;2024-02-26T05:50:31;19.58;;;9.15;;
75504;SDS011;64085;54.974;73.410;2024-02-26T05:52:57;15.75;;;9.88;;
75504;SDS011;64085;54.974;73.410;2024-02-26T05:55:22;17.90;;;9.45;;
75504;SDS011;64085;54.974;73.410;2024-02-26T05:57:48;18.38;;;10.07;;
75504;SDS011;64085;54.974;73.410;2024-02-26T06:00:14;17.90;;;9.23;;
75504;SDS011;64085;54.974;73.410;2024-02-26T06:02:40;17.92;;;10.20;;
75504;SDS011;64085;54.974;73.410;2024-02-26T06:05:06;16.77;;;9.45;;
75504;SDS011;64085;54.974;73.410;2024-02-26T06:07:33;16.27;;;9.95;;
75504;SDS011;64085;54.974;73.410;2024-02-26T06:09:58;20.98;;;9.48;;
75504;SDS011;64085;54.974;73.410;2024-02-26T06:12:24;16.67;;;10.30;;
75504;SDS011;64085;54.974;73.410;2024-02-26T06:14:49;16.52;;;9.55;;
75504;SDS011;64085;54.974;73.410;2024-02-26T06:17:15;18.77;;;9.32;;
75504;SDS011;64085;54.974;73.410;2024-02-26T06:19:41;19.83;;;10.68;;
75504;SDS011;64085;54.974;73.410;2024-02-26T06:22:06;11.50;;;7.45;;
75504;SDS011;64085;54.974;73.410;2024-02-26T06:24:32;17.42;;;7.22;;
75504;SDS011;64085;54.974;73.410;2024-02-26T06:26:57;18.13;;;8.98;;
75504;SDS011;64085;54.974;73.410;2024-02-26T06:29:23;20.20;;;10.25;;
75504;SDS011;64085;54.974;73.410;2024-02-26T06:31:48;17.23;;;9.93;;
75504;SDS011;64085;54.974;73.410;2024-02-26T06:34:16;16.33;;;9.82;;
75504;SDS011;64085;54.974;73.410;2024-02-26T06:36:59;16.60;;;9.27;;
75504;SDS011;64085;54.974;73.410;2024-02-26T06:39:25;18.70;;;11.20;;
75504;SDS011;64085;54.974;73.410;2024-02-26T06:41:50;17.25;;;10.57;;
75504;SDS011;64085;54.974;73.410;2024-02-26T06:44:19;17.00;;;8.68;;
75504;SDS011;64085;54.974;73.410;2024-02-26T06:46:44;20.52;;;9.90;;
75504;SDS011;64085;54.974;73.410;2024-02-26T06:49:10;16.05;;;9.43;;
75504;SDS011;64085;54.974;73.410;2024-02-26T06:51:35;12.90;;;8.95;;
75504;SDS011;64085;54.974;73.410;2024-02-26T06:54:01;14.38;;;9.43;;
75504;SDS011;64085;54.974;73.410;2024-02-26T06:56:26;14.73;;;8.70;;
75504;SDS011;64085;54.974;73.410;2024-02-26T06:58:51;16.98;;;8.30;;
75504;SDS011;64085;54.974;73.410;2024-02-26T07:01:18;11.98;;;7.68;;
75504;SDS011;64085;54.974;73.410;2024-02-26T07:03:43;17.50;;;8.18;;
75504;SDS011;64085;54.974;73.410;2024-02-26T07:06:09;16.45;;;11.75;;
75504;SDS011;64085;54.974;73.410;2024-02-26T07:08:34;17.48;;;9.38;;
75504;SDS011;64085;54.974;73.410;2024-02-26T07:10:59;13.73;;;8.30;;
75504;SDS011;64085;54.974;73.410;2024-02-26T07:13:43;13.40;;;7.60;;
75504;SDS011;64085;54.974;73.410;2024-02-26T07:16:09;12.35;;;6.88;;
75504;SDS011;64085;54.974;73.410;2024-02-26T07:18:35;14.80;;;8.07;;
75504;SDS011;64085;54.974;73.410;2024-02-26T07:21:03;12.27;;;8.07;;
75504;SDS011;64085;54.974;73.410;2024-02-26T07:23:29;15.57;;;8.75;;
75504;SDS011;64085;54.974;73.410;2024-02-26T07:25:54;16.55;;;8.25;;
75504;SDS011;64085;54.974;73.410;2024-02-26T07:28:20;11.93;;;7.57;;
75504;SDS011;64085;54.974;73.410;2024-02-26T07:30:45;18.40;;;7.70;;
75504;SDS011;64085;54.974;73.410;2024-02-26T07:33:11;13.73;;;7.38;;
75504;SDS011;64085;54.974;73.410;2024-02-26T07:35:36;11.60;;;6.93;;
75504;SDS011;64085;54.974;73.410;2024-02-26T07:38:04;10.98;;;5.63;;
75504;SDS011;64085;54.974;73.410;2024-02-26T07:40:29;9.82;;;6.13;;
75504;SDS011;64085;54.974;73.410;2024-02-26T07:42:55;10.23;;;6.32;;
75504;SDS011;64085;54.974;73.410;2024-02-26T07:45:21;12.27;;;6.72;;
75504;SDS011;64085;54.974;73.410;2024-02-26T07:47:47;13.43;;;6.50;;
75504;SDS011;64085;54.974;73.410;2024-02-26T07:50:12;13.27;;;6.95;;
75504;SDS011;64085;54.974;73.410;2024-02-26T07:52:38;10.82;;;6.35;;
75504;SDS011;64085;54.974;73.410;2024-02-26T07:55:03;13.13;;;6.45;;
75504;SDS011;64085;54.974;73.410;2024-02-26T07:57:30;11.30;;;7.10;;
75504;SDS011;64085;54.974;73.410;2024-02-26T07:59:55;13.38;;;7.20;;
75504;SDS011;64085;54.974;73.410;2024-02-26T08:02:21;11.48;;;7.15;;
75504;SDS011;64085;54.974;73.410;2024-02-26T08:04:47;13.02;;;6.25;;
75504;SDS011;64085;54.974;73.410;2024-02-26T08:07:12;12.70;;;7.45;;
75504;SDS011;64085;54.974;73.410;2024-02-26T08:09:38;17.30;;;10.18;;
75504;SDS011;64085;54.974;73.410;2024-02-26T08:12:03;12.57;;;7.97;;
75504;SDS011;64085;54.974;73.410;2024-02-26T08:14:29;15.32;;;8.05;;
75504;SDS011;64085;54.974;73.410;2024-02-26T08:16:54;13.73;;;6.72;;
75504;SDS011;64085;54.974;73.410;2024-02-26T08:19:20;13.77;;;7.10;;
75504;SDS011;64085;54.974;73.410;2024-02-26T08:21:45;13.45;;;8.20;;
75504;SDS011;64085;54.974;73.410;2024-02-26T08:24:11;14.50;;;8.90;;
75504;SDS011;64085;54.974;73.410;2024-02-26T08:26:36;15.98;;;7.80;;
75504;SDS011;64085;54.974;73.410;2024-02-26T08:29:02;10.45;;;6.20;;
75504;SDS011;64085;54.974;73.410;2024-02-26T08:31:27;15.98;;;9.23;;
75504;SDS011;64085;54.974;73.410;2024-02-26T08:33:53;14.77;;;7.93;;
75504;SDS011;64085;54.974;73.410;2024-02-26T08:36:18;14.48;;;6.95;;
75504;SDS011;64085;54.974;73.410;2024-02-26T08:38:44;13.80;;;7.88;;
75504;SDS011;64085;54.974;73.410;2024-02-26T08:41:09;14.18;;;6.50;;
75504;SDS011;64085;54.974;73.410;2024-02-26T08:43:35;14.27;;;7.57;;
75504;SDS011;64085;54.974;73.410;2024-02-26T08:46:01;13.05;;;7.25;;
75504;SDS011;64085;54.974;73.410;2024-02-26T08:48:26;13.93;;;7.65;;
75504;SDS011;64085;54.974;73.410;2024-02-26T08:50:52;13.02;;;8.60;;
75504;SDS011;64085;54.974;73.410;2024-02-26T08:53:17;12.32;;;7.00;;
75504;SDS011;64085;54.974;73.410;2024-02-26T08:55:43;12.70;;;7.45;;
75504;SDS011;64085;54.974;73.410;2024-02-26T08:58:08;15.27;;;8.43;;
75504;SDS011;64085;54.974;73.410;2024-02-26T09:00:33;12.75;;;7.50;;
75504;SDS011;64085;54.974;73.410;2024-02-26T09:02:59;13.07;;;7.30;;
75504;SDS011;64085;54.974;73.410;2024-02-26T09:05:24;12.65;;;7.95;;
75504;SDS011;64085;54.974;73.410;2024-02-26T09:07:50;14.23;;;7.10;;
75504;SDS011;64085;54.974;73.410;2024-02-26T09:10:17;13.57;;;7.15;;
75504;SDS011;64085;54.974;73.410;2024-02-26T09:12:42;11.45;;;6.53;;
75504;SDS011;64085;54.974;73.410;2024-02-26T09:15:08;14.27;;;6.70;;
75504;SDS011;64085;54.974;73.410;2024-02-26T09:17:34;15.25;;;6.25;;
75504;SDS011;64085;54.974;73.410;2024-02-26T09:19:59;9.63;;;6.20;;
75504;SDS011;64085;54.974;73.410;2024-02-26T09:22:25;15.10;;;7.50;;
75504;SDS011;64085;54.974;73.410;2024-02-26T09:24:50;11.35;;;6.05;;
75504;SDS011;64085;54.974;73.410;2024-02-26T09:27:17;15.45;;;7.78;;
75504;SDS011;64085;54.974;73.410;2024-02-26T09:29:43;13.65;;;7.68;;
75504;SDS011;64085;54.974;73.410;2024-02-26T09:32:08;9.73;;;6.80;;
75504;SDS011;64085;54.974;73.410;2024-02-26T09:34:33;14.25;;;7.03;;
75504;SDS011;64085;54.974;73.410;2024-02-26T09:36:59;15.63;;;6.20;;
75504;SDS011;64085;54.974;73.410;2024-02-26T09:39:26;14.60;;;6.93;;
75504;SDS011;64085;54.974;73.410;2024-02-26T09:41:53;11.75;;;6.88;;
75504;SDS011;64085;54.974;73.410;2024-02-26T09:44:19;13.55;;;6.60;;
75504;SDS011;64085;54.974;73.410;2024-02-26T09:46:47;12.57;;;5.88;;
75504;SDS011;64085;54.974;73.410;2024-02-26T09:49:16;10.57;;;6.75;;
75504;SDS011;64085;54.974;73.410;2024-02-26T09:51:42;13.07;;;6.60;;
75504;SDS011;64085;54.974;73.410;2024-02-26T09:54:09;12.15;;;6.78;;
75504;SDS011;64085;54.974;73.410;2024-02-26T09:56:35;14.32;;;6.97;;
75504;SDS011;64085;54.974;73.410;2024-02-26T09:59:01;14.10;;;7.30;;
75504;SDS011;64085;54.974;73.410;2024-02-26T10:01:28;15.32;;;7.25;;
75504;SDS011;64085;54.974;73.410;2024-02-26T10:03:58;11.27;;;6.70;;
75504;SDS011;64085;54.974;73.410;2024-02-26T10:06:27;14.85;;;8.15;;
75504;SDS011;64085;54.974;73.410;2024-02-26T10:08:53;12.20;;;6.60;;
75504;SDS011;64085;54.974;73.410;2024-02-26T10:11:19;15.70;;;6.95;;
75504;SDS011;64085;54.974;73.410;2024-02-26T10:13:45;11.63;;;6.75;;
75504;SDS011;64085;54.974;73.410;2024-02-26T10:16:11;16.52;;;7.28;;
75504;SDS011;64085;54.974;73.410;2024-02-26T10:18:46;11.73;;;6.75;;
75504;SDS011;64085;54.974;73.410;2024-02-26T10:23:39;12.05;;;6.78;;
75504;SDS011;64085;54.974;73.410;2024-02-26T10:26:04;14.05;;;6.90;;
75504;SDS011;64085;54.974;73.410;2024-02-26T10:28:30;14.13;;;7.25;;
75504;SDS011;64085;54.974;73.410;2024-02-26T10:33:39;18.35;;;10.40;;
75504;SDS011;64085;54.974;73.410;2024-02-26T10:36:06;12.15;;;6.85;;
75504;SDS011;64085;54.974;73.410;2024-02-26T10:38:32;19.25;;;8.85;;
75504;SDS011;64085;54.974;73.410;2024-02-26T10:40:58;18.02;;;8.65;;
75504;SDS011;64085;54.974;73.410;2024-02-26T10:43:25;17.65;;;8.40;;
75504;SDS011;64085;54.974;73.410;2024-02-26T10:45:50;16.60;;;8.10;;
75504;SDS011;64085;54.974;73.410;2024-02-26T10:48:16;10.05;;;5.43;;
75504;SDS011;64085;54.974;73.410;2024-02-26T10:50:42;13.85;;;6.75;;
75504;SDS011;64085;54.974;73.410;2024-02-26T10:53:12;10.55;;;7.18;;
75504;SDS011;64085;54.974;73.410;2024-02-26T10:55:40;11.80;;;5.97;;
75504;SDS011;64085;54.974;73.410;2024-02-26T10:58:05;15.82;;;6.78;;
75504;SDS011;64085;54.974;73.410;2024-02-26T11:00:33;12.90;;;7.53;;
75504;SDS011;64085;54.974;73.410;2024-02-26T11:02:59;14.70;;;8.38;;
75504;SDS011;64085;54.974;73.410;2024-02-26T11:05:28;15.75;;;8.60;;
75504;SDS011;64085;54.974;73.410;2024-02-26T11:07:53;12.75;;;6.28;;
75504;SDS011;64085;54.974;73.410;2024-02-26T11:10:19;16.13;;;7.20;;
75504;SDS011;64085;54.974;73.410;2024-02-26T11:12:45;14.18;;;6.30;;
75504;SDS011;64085;54.974;73.410;2024-02-26T11:15:11;11.38;;;5.70;;
75504;SDS011;64085;54.974;73.410;2024-02-26T11:17:37;13.98;;;7.47;;
75504;SDS011;64085;54.974;73.410;2024-02-26T11:20:03;17.40;;;8.02;;
75504;SDS011;64085;54.974;73.410;2024-02-26T11:22:30;10.93;;;4.75;;
75504;SDS011;64085;54.974;73.410;2024-02-26T11:24:56;10.15;;;5.50;;
75504;SDS011;64085;54.974;73.410;2024-02-26T11:27:32;16.75;;;6.78;;
75504;SDS011;64085;54.974;73.410;2024-02-26T11:30:01;8.80;;;5.38;;
75504;SDS011;64085;54.974;73.410;2024-02-26T11:32:27;10.65;;;5.53;;
75504;SDS011;64085;54.974;73.410;2024-02-26T11:34:55;12.65;;;5.78;;
75504;SDS011;64085;54.974;73.410;2024-02-26T11:37:21;15.63;;;6.97;;
75504;SDS011;64085;54.974;73.410;2024-02-26T11:39:47;10.80;;;6.47;;
75504;SDS011;64085;54.974;73.410;2024-02-26T11:42:14;17.38;;;7.88;;
75504;SDS011;64085;54.974;73.410;2024-02-26T11:44:40;12.23;;;5.25;;
75504;SDS011;64085;54.974;73.410;2024-02-26T11:49:35;15.57;;;9.05;;
75504;SDS011;64085;54.974;73.410;2024-02-26T11:52:04;39.33;;;19.23;;
75504;SDS011;64085;54.974;73.410;2024-02-26T11:57:24;24.98;;;12.57;;
75504;SDS011;64085;54.974;73.410;2024-02-26T11:59:50;30.58;;;16.48;;
75504;SDS011;64085;54.974;73.410;2024-02-26T12:05:00;26.05;;;12.40;;
75504;SDS011;64085;54.974;73.410;2024-02-26T12:07:25;13.93;;;6.78;;
75504;SDS011;64085;54.974;73.410;2024-02-26T12:09:51;21.35;;;9.93;;
75504;SDS011;64085;54.974;73.410;2024-02-26T12:12:20;23.13;;;9.95;;
75504;SDS011;64085;54.974;73.410;2024-02-26T12:14:53;16.00;;;8.05;;
75504;SDS011;64085;54.974;73.410;2024-02-26T12:17:22;19.10;;;9.30;;
75504;SDS011;64085;54.974;73.410;2024-02-26T12:19:48;14.48;;;6.22;;
75504;SDS011;64085;54.974;73.410;2024-02-26T12:22:14;17.58;;;9.50;;
75504;SDS011;64085;54.974;73.410;2024-02-26T12:24:40;16.77;;;8.73;;
75504;SDS011;64085;54.974;73.410;2024-02-26T12:27:06;13.40;;;7.15;;
75504;SDS011;64085;54.974;73.410;2024-02-26T12:29:31;24.23;;;9.75;;
75504;SDS011;64085;54.974;73.410;2024-02-26T12:31:57;16.55;;;8.80;;
75504;SDS011;64085;54.974;73.410;2024-02-26T12:34:22;22.52;;;12.77;;
75504;SDS011;64085;54.974;73.410;2024-02-26T12:36:48;21.52;;;11.02;;
75504;SDS011;64085;54.974;73.410;2024-02-26T12:39:14;19.08;;;10.45;;
75504;SDS011;64085;54.974;73.410;2024-02-26T12:41:39;21.10;;;9.75;;
75504;SDS011;64085;54.974;73.410;2024-02-26T12:44:05;23.48;;;13.93;;
75504;SDS011;64085;54.974;73.410;2024-02-26T12:46:32;23.85;;;10.02;;
75504;SDS011;64085;54.974;73.410;2024-02-26T12:48:58;22.70;;;10.88;;
75504;SDS011;64085;54.974;73.410;2024-02-26T12:51:24;11.60;;;5.15;;
75504;SDS011;64085;54.974;73.410;2024-02-26T12:53:50;13.77;;;8.35;;
75504;SDS011;64085;54.974;73.410;2024-02-26T12:56:17;22.27;;;9.70;;
75504;SDS011;64085;54.974;73.410;2024-02-26T12:58:43;19.63;;;8.95;;
75504;SDS011;64085;54.974;73.410;2024-02-26T13:01:10;14.68;;;7.30;;
75504;SDS011;64085;54.974;73.410;2024-02-26T13:06:04;15.50;;;9.33;;
75504;SDS011;64085;54.974;73.410;2024-02-26T13:08:31;19.15;;;11.20;;
75504;SDS011;64085;54.974;73.410;2024-02-26T13:10:58;20.15;;;9.77;;
75504;SDS011;64085;54.974;73.410;2024-02-26T13:13:24;14.48;;;8.77;;
75504;SDS011;64085;54.974;73.410;2024-02-26T13:15:49;14.50;;;8.40;;
75504;SDS011;64085;54.974;73.410;2024-02-26T13:18:15;19.02;;;8.10;;
75504;SDS011;64085;54.974;73.410;2024-02-26T13:20:40;19.13;;;9.50;;
75504;SDS011;64085;54.974;73.410;2024-02-26T13:23:06;17.40;;;9.88;;
75504;SDS011;64085;54.974;73.410;2024-02-26T13:25:33;26.85;;;12.63;;
75504;SDS011;64085;54.974;73.410;2024-02-26T13:28:07;20.35;;;9.98;;
75504;SDS011;64085;54.974;73.410;2024-02-26T13:33:20;13.13;;;6.40;;
75504;SDS011;64085;54.974;73.410;2024-02-26T13:35:45;16.67;;;9.13;;
75504;SDS011;64085;54.974;73.410;2024-02-26T13:38:11;16.83;;;8.40;;
75504;SDS011;64085;54.974;73.410;2024-02-26T13:40:37;8.20;;;3.47;;
75504;SDS011;64085;54.974;73.410;2024-02-26T13:43:04;17.60;;;8.02;;
75504;SDS011;64085;54.974;73.410;2024-02-26T13:45:29;17.20;;;9.18;;
75504;SDS011;64085;54.974;73.410;2024-02-26T13:48:00;19.00;;;9.55;;
75504;SDS011;64085;54.974;73.410;2024-02-26T13:50:26;28.38;;;15.55;;
75504;SDS011;64085;54.974;73.410;2024-02-26T13:52:52;27.58;;;14.55;;
75504;SDS011;64085;54.974;73.410;2024-02-26T13:55:19;24.20;;;8.02;;
75504;SDS011;64085;54.974;73.410;2024-02-26T13:57:45;26.95;;;12.50;;
75504;SDS011;64085;54.974;73.410;2024-02-26T14:00:11;20.33;;;10.13;;
75504;SDS011;64085;54.974;73.410;2024-02-26T14:02:37;22.65;;;10.10;;
75504;SDS011;64085;54.974;73.410;2024-02-26T14:05:03;30.27;;;14.23;;
75504;SDS011;64085;54.974;73.410;2024-02-26T14:07:29;20.20;;;11.95;;
75504;SDS011;64085;54.974;73.410;2024-02-26T14:09:57;28.50;;;13.48;;
75504;SDS011;64085;54.974;73.410;2024-02-26T14:12:22;25.75;;;13.13;;
75504;SDS011;64085;54.974;73.410;2024-02-26T14:14:48;33.63;;;16.30;;
75504;SDS011;64085;54.974;73.410;2024-02-26T14:17:14;30.38;;;11.75;;
75504;SDS011;64085;54.974;73.410;2024-02-26T14:19:40;32.60;;;13.23;;
75504;SDS011;64085;54.974;73.410;2024-02-26T14:22:10;24.67;;;11.43;;
75504;SDS011;64085;54.974;73.410;2024-02-26T14:24:36;25.58;;;14.30;;
75504;SDS011;64085;54.974;73.410;2024-02-26T14:27:01;24.30;;;11.23;;
75504;SDS011;64085;54.974;73.410;2024-02-26T14:29:27;22.98;;;11.45;;
75504;SDS011;64085;54.974;73.410;2024-02-26T14:31:53;9.98;;;4.68;;